createdAt,value
2023-03-05T00:01:33.341Z,17.08
2023-03-05T00:04:02.967Z,16.73
2023-03-05T00:06:32.079Z,16.58
2023-03-05T00:09:00.367Z,16.02
2023-03-05T00:11:33.693Z,16.42
2023-03-05T00:14:03.771Z,16.73
2023-03-05T00:16:32.350Z,16.25
2023-03-05T00:19:02.067Z,16.70
2023-03-05T00:21:41.729Z,17.02
2023-03-05T00:24:16.870Z,16.95
2023-03-05T00:26:46.214Z,17.27
2023-03-05T00:29:18.695Z,17.05
2023-03-05T00:31:46.760Z,16.95
2023-03-05T00:34:16.814Z,18.20
2023-03-05T00:36:47.319Z,18.77
2023-03-05T00:39:15.480Z,18.80
2023-03-05T00:41:44.020Z,19.17
2023-03-05T00:44:13.167Z,22.20
2023-03-05T00:46:41.330Z,21.27
2023-03-05T00:49:09.118Z,19.20
2023-03-05T00:51:36.832Z,19.02
2023-03-05T00:54:05.581Z,20.67
2023-03-05T00:56:33.796Z,20.75
2023-03-05T00:59:01.806Z,18.80
2023-03-05T01:01:29.663Z,17.75
2023-03-05T01:03:58.416Z,18.48
2023-03-05T01:06:26.252Z,17.50
2023-03-05T01:08:56.701Z,17.50
2023-03-05T01:11:25.198Z,16.27
2023-03-05T01:13:53.036Z,15.93
2023-03-05T01:16:20.977Z,14.60
2023-03-05T01:18:48.914Z,13.93
2023-03-05T01:21:16.678Z,14.15
2023-03-05T01:23:44.472Z,13.48
2023-03-05T01:26:12.288Z,14.55
2023-03-05T01:28:40.946Z,14.93
2023-03-05T01:31:12.512Z,13.30
2023-03-05T01:33:40.405Z,12.75
2023-03-05T01:36:12.660Z,12.30
2023-03-05T01:38:41.329Z,13.73
2023-03-05T01:41:09.813Z,13.15
2023-03-05T01:43:37.800Z,13.88
2023-03-05T01:46:23.919Z,13.25
2023-03-05T01:48:59.472Z,13.80
2023-03-05T01:51:30.961Z,13.27
2023-03-05T01:54:01.425Z,12.60
2023-03-05T01:56:30.031Z,12.40
2023-03-05T01:59:03.715Z,13.07
2023-03-05T02:01:38.790Z,13.27
2023-03-05T02:04:09.491Z,13.90
2023-03-05T02:06:39.079Z,12.30
2023-03-05T02:09:06.810Z,13.02
2023-03-05T02:11:36.320Z,12.38
2023-03-05T02:14:06.611Z,13.07
2023-03-05T02:16:37.316Z,12.25
2023-03-05T02:19:07.775Z,13.48
2023-03-05T02:21:45.301Z,12.20
2023-03-05T02:24:18.976Z,12.75
2023-03-05T02:26:47.757Z,12.40
2023-03-05T02:29:20.151Z,12.88
2023-03-05T02:31:48.033Z,12.90
2023-03-05T02:34:16.007Z,13.57
2023-03-05T02:36:43.822Z,13.77
2023-03-05T02:39:12.974Z,13.35
2023-03-05T02:41:40.725Z,12.75
2023-03-05T02:44:09.393Z,12.82
2023-03-05T02:46:37.122Z,14.10
2023-03-05T02:49:05.598Z,13.38
2023-03-05T02:51:33.360Z,13.30
2023-03-05T02:54:01.160Z,13.55
2023-03-05T02:56:30.214Z,13.27
2023-03-05T02:58:58.023Z,12.73
2023-03-05T03:01:28.572Z,13.55
2023-03-05T03:03:57.011Z,13.75
2023-03-05T03:06:24.628Z,13.55
2023-03-05T03:08:52.452Z,14.82
2023-03-05T03:11:21.563Z,14.35
2023-03-05T03:13:49.370Z,14.20
2023-03-05T03:16:18.321Z,13.32
2023-03-05T03:18:47.705Z,14.70
2023-03-05T03:21:25.377Z,14.45
2023-03-05T03:23:53.366Z,14.38
2023-03-05T03:26:21.205Z,14.27
2023-03-05T03:28:49.222Z,14.40
2023-03-05T03:31:17.245Z,14.57
2023-03-05T03:33:45.193Z,15.07
2023-03-05T03:36:13.018Z,14.57
2023-03-05T03:38:40.783Z,14.80
2023-03-05T03:41:09.761Z,14.70
2023-03-05T03:43:37.816Z,14.40
2023-03-05T03:46:07.324Z,13.85
2023-03-05T03:48:36.182Z,13.50
2023-03-05T03:51:05.759Z,13.63
2023-03-05T03:53:33.678Z,13.90
2023-03-05T03:56:01.644Z,14.63
2023-03-05T03:58:29.830Z,14.75
2023-03-05T04:00:57.642Z,14.60
2023-03-05T04:03:25.564Z,13.85
2023-03-05T04:05:53.441Z,13.82
2023-03-05T04:08:21.121Z,14.52
2023-03-05T04:10:49.095Z,13.93
2023-03-05T04:13:16.808Z,14.98
2023-03-05T04:15:44.779Z,14.88
2023-03-05T04:18:12.692Z,14.65
2023-03-05T04:20:40.414Z,14.90
2023-03-05T04:23:09.236Z,15.20
2023-03-05T04:25:36.995Z,15.27
2023-03-05T04:28:04.965Z,15.10
2023-03-05T04:30:33.505Z,15.02
2023-03-05T04:33:01.402Z,14.43
2023-03-05T04:35:29.207Z,15.45
2023-03-05T04:37:56.955Z,14.40
2023-03-05T04:40:24.728Z,14.63
2023-03-05T04:42:52.468Z,13.82
2023-03-05T04:45:20.217Z,14.48
2023-03-05T04:47:48.164Z,14.82
2023-03-05T04:50:16.366Z,14.77
2023-03-05T04:52:45.532Z,14.65
2023-03-05T04:55:15.227Z,13.88
2023-03-05T04:57:44.824Z,16.00
2023-03-05T05:00:15.500Z,15.02
2023-03-05T05:02:45.764Z,15.68
2023-03-05T05:05:17.128Z,14.73
2023-03-05T05:07:45.660Z,15.50
2023-03-05T05:10:15.212Z,14.57
2023-03-05T05:12:43.066Z,14.60
2023-03-05T05:15:12.353Z,14.07
2023-03-05T05:17:40.104Z,14.88
2023-03-05T05:20:11.125Z,14.25
2023-03-05T05:22:38.883Z,15.52
2023-03-05T05:25:06.667Z,14.45
2023-03-05T05:27:34.907Z,15.48
2023-03-05T05:30:04.318Z,14.95
2023-03-05T05:32:32.936Z,14.73
2023-03-05T05:35:00.898Z,15.73
2023-03-05T05:37:30.247Z,14.10
2023-03-05T05:39:58.389Z,14.23
2023-03-05T05:42:26.318Z,16.10
2023-03-05T05:44:55.665Z,15.52
2023-03-05T05:47:23.425Z,16.67
2023-03-05T05:49:51.394Z,15.85
2023-03-05T05:52:19.211Z,14.75
2023-03-05T05:54:47.431Z,15.18
2023-03-05T05:57:15.801Z,15.70
2023-03-05T05:59:43.453Z,15.70
2023-03-05T06:02:12.075Z,15.98
2023-03-05T06:04:40.530Z,16.40
2023-03-05T06:07:08.903Z,15.55
2023-03-05T06:09:38.144Z,16.15
2023-03-05T06:12:06.971Z,16.35
2023-03-05T06:14:35.895Z,16.02
2023-03-05T06:17:03.648Z,16.35
2023-03-05T06:19:31.386Z,17.63
2023-03-05T06:21:59.255Z,16.35
2023-03-05T06:24:27.211Z,17.63
2023-03-05T06:26:56.559Z,16.55
2023-03-05T06:29:24.456Z,16.80
2023-03-05T06:31:52.285Z,17.38
2023-03-05T06:34:20.060Z,17.63
2023-03-05T06:36:47.882Z,16.52
2023-03-05T06:39:15.648Z,15.60
2023-03-05T06:41:44.766Z,15.43
2023-03-05T06:44:12.669Z,15.07
2023-03-05T06:46:40.673Z,17.13
2023-03-05T06:49:09.789Z,16.90
2023-03-05T06:51:39.805Z,17.40
2023-03-05T06:54:11.124Z,17.63
2023-03-05T06:56:41.906Z,17.52
2023-03-05T06:59:11.440Z,17.70
2023-03-05T07:01:39.325Z,18.65
2023-03-05T07:04:07.324Z,18.90
2023-03-05T07:06:38.465Z,19.88
2023-03-05T07:09:07.442Z,18.10
2023-03-05T07:11:35.531Z,18.58
2023-03-05T07:14:04.340Z,18.10
2023-03-05T07:16:34.404Z,18.83
2023-03-05T07:19:04.388Z,17.73
2023-03-05T07:21:34.268Z,19.17
2023-03-05T07:24:04.504Z,18.02
2023-03-05T07:26:35.932Z,19.65
2023-03-05T07:29:04.438Z,19.40
2023-03-05T07:31:32.981Z,21.50
2023-03-05T07:34:03.532Z,20.10
2023-03-05T07:36:31.967Z,18.65
2023-03-05T07:38:59.953Z,20.05
2023-03-05T07:41:27.962Z,18.90
2023-03-05T07:43:56.276Z,18.80
2023-03-05T07:46:30.315Z,18.98
2023-03-05T07:49:00.155Z,18.25
2023-03-05T07:51:28.847Z,18.30
2023-03-05T07:53:58.717Z,17.88
2023-03-05T07:56:32.169Z,18.75
2023-03-05T07:59:01.082Z,17.85
2023-03-05T08:01:32.624Z,16.00
2023-03-05T08:04:00.383Z,15.32
2023-03-05T08:06:28.241Z,18.13
2023-03-05T08:08:56.118Z,17.40
2023-03-05T08:11:24.293Z,16.73
2023-03-05T08:13:52.146Z,17.73
2023-03-05T08:16:21.881Z,17.67
2023-03-05T08:18:49.741Z,18.73
2023-03-05T08:21:20.715Z,17.27
2023-03-05T08:23:48.871Z,17.52
2023-03-05T08:26:21.278Z,16.77
2023-03-05T08:28:50.364Z,17.75
2023-03-05T08:31:21.607Z,17.48
2023-03-05T08:33:53.743Z,17.35
2023-03-05T08:36:23.113Z,17.52
2023-03-05T08:38:51.408Z,18.25
2023-03-05T08:41:19.918Z,18.75
2023-03-05T08:43:49.325Z,19.35
2023-03-05T08:46:17.684Z,18.20
2023-03-05T08:48:45.473Z,17.98
2023-03-05T08:51:16.084Z,17.23
2023-03-05T08:53:45.436Z,16.98
2023-03-05T08:56:14.568Z,18.63
2023-03-05T08:58:42.982Z,16.38
2023-03-05T09:01:11.094Z,16.48
2023-03-05T09:03:39.430Z,15.23
2023-03-05T09:06:10.144Z,13.13
2023-03-05T09:08:38.164Z,13.60
2023-03-05T09:11:08.969Z,13.68
2023-03-05T09:13:36.772Z,13.93
2023-03-05T09:16:07.320Z,13.45
2023-03-05T09:18:37.037Z,12.77
2023-03-05T09:21:06.198Z,11.98
2023-03-05T09:23:34.736Z,12.77
2023-03-05T09:26:05.610Z,11.75
2023-03-05T09:28:35.482Z,12.20
2023-03-05T09:31:04.933Z,13.07
2023-03-05T09:33:35.015Z,13.40
2023-03-05T09:36:03.872Z,13.77
2023-03-05T09:38:32.455Z,13.50
2023-03-05T09:41:19.295Z,12.00
2023-03-05T09:44:12.211Z,13.30
2023-03-05T09:47:02.664Z,14.20
2023-03-05T09:49:57.785Z,12.77
2023-03-05T09:52:57.985Z,12.25
2023-03-05T09:55:41.138Z,11.05
2023-03-05T09:58:16.717Z,11.93
2023-03-05T10:00:50.026Z,11.38
2023-03-05T10:03:30.543Z,10.93
2023-03-05T10:06:15.533Z,11.75
2023-03-05T10:08:53.586Z,11.45
2023-03-05T10:11:30.522Z,11.38
2023-03-05T10:13:58.730Z,13.18
2023-03-05T10:16:54.476Z,14.05
2023-03-05T10:19:46.526Z,12.77
2023-03-05T10:22:22.923Z,14.10
2023-03-05T10:25:24.258Z,16.10
2023-03-05T10:28:02.131Z,15.05
2023-03-05T10:31:12.046Z,14.80
2023-03-05T10:33:53.623Z,14.07
2023-03-05T10:36:46.126Z,12.98
2023-03-05T10:39:42.612Z,12.60
2023-03-05T10:42:40.221Z,12.20
2023-03-05T10:45:29.338Z,10.90
2023-03-05T10:48:14.300Z,11.00
2023-03-05T10:50:54.378Z,11.45
2023-03-05T10:53:48.094Z,11.27
2023-03-05T10:56:18.983Z,11.18
2023-03-05T10:58:55.160Z,12.00
2023-03-05T11:04:32.563Z,14.65
2023-03-05T11:07:23.189Z,14.40
2023-03-05T11:10:00.088Z,13.30
2023-03-05T11:12:31.988Z,12.43
2023-03-05T11:15:26.046Z,12.55
2023-03-05T11:18:22.373Z,12.98
2023-03-05T11:20:51.279Z,14.25
2023-03-05T11:23:21.014Z,14.45
2023-03-05T11:25:55.033Z,13.98
2023-03-05T11:28:38.390Z,13.43
2023-03-05T11:31:15.807Z,13.98
2023-03-05T11:34:01.192Z,13.73
2023-03-05T11:36:40.896Z,15.60
2023-03-05T11:39:12.178Z,14.63
2023-03-05T11:41:48.176Z,14.90
2023-03-05T11:44:30.442Z,17.85
2023-03-05T11:47:26.715Z,17.40
2023-03-05T11:50:16.187Z,17.67
2023-03-05T11:52:59.186Z,21.70
2023-03-05T11:55:40.350Z,23.33
2023-03-05T11:58:33.159Z,23.77
2023-03-05T12:01:03.836Z,23.42
2023-03-05T12:03:38.883Z,22.40
2023-03-05T12:06:21.263Z,20.77
2023-03-05T12:08:56.470Z,19.92
2023-03-05T12:11:33.219Z,20.02
2023-03-05T12:14:32.234Z,19.08
2023-03-05T12:17:12.075Z,16.88
2023-03-05T12:19:48.539Z,16.13
2023-03-05T12:22:24.329Z,15.90
2023-03-05T12:24:52.520Z,15.88
2023-03-05T12:27:37.194Z,16.23
2023-03-05T12:30:05.618Z,15.30
2023-03-05T12:32:34.074Z,16.98
2023-03-05T12:35:26.011Z,24.48
2023-03-05T12:37:53.726Z,24.30
2023-03-05T12:40:24.623Z,22.15
2023-03-05T12:43:01.356Z,20.80
2023-03-05T12:45:40.495Z,19.23
2023-03-05T12:48:12.760Z,18.00
2023-03-05T12:50:40.428Z,17.33
2023-03-05T12:53:26.325Z,20.13
2023-03-05T12:56:19.468Z,19.80
2023-03-05T12:58:53.914Z,21.17
2023-03-05T13:01:42.700Z,16.95
2023-03-05T13:04:23.731Z,20.20
2023-03-05T13:07:07.626Z,20.30
2023-03-05T13:09:36.634Z,17.50
2023-03-05T13:12:11.123Z,16.85
2023-03-05T13:14:47.684Z,17.25
2023-03-05T13:17:38.259Z,15.10
2023-03-05T13:20:31.508Z,16.42
2023-03-05T13:23:26.778Z,14.77
2023-03-05T13:26:00.748Z,13.98
2023-03-05T13:28:29.608Z,13.38
2023-03-05T13:31:04.999Z,13.23
2023-03-05T13:33:35.947Z,13.43
2023-03-05T13:36:05.356Z,13.95
2023-03-05T13:38:40.511Z,13.07
2023-03-05T13:41:11.318Z,11.63
2023-03-05T13:43:44.689Z,15.20
2023-03-05T13:46:13.115Z,17.90
2023-03-05T13:48:41.025Z,15.93
2023-03-05T13:51:09.952Z,16.10
2023-03-05T13:53:37.925Z,15.38
2023-03-05T13:56:08.577Z,15.52
2023-03-05T13:58:55.016Z,13.50
2023-03-05T14:01:50.946Z,12.60
2023-03-05T14:04:26.272Z,13.55
2023-03-05T14:07:01.778Z,12.23
2023-03-05T14:09:38.767Z,12.80
2023-03-05T14:12:30.529Z,12.30
2023-03-05T14:14:59.844Z,11.45
2023-03-05T14:17:31.179Z,12.77
2023-03-05T14:20:14.748Z,11.20
2023-03-05T14:22:45.513Z,11.00
2023-03-05T14:25:38.885Z,12.00
2023-03-05T14:28:18.775Z,12.48
2023-03-05T14:30:53.052Z,11.63
2023-03-05T14:33:27.616Z,11.32
2023-03-05T14:35:57.891Z,11.85
2023-03-05T14:38:30.363Z,11.45
2023-03-05T14:40:58.462Z,12.63
2023-03-05T14:43:26.175Z,11.15
2023-03-05T14:45:54.093Z,11.27
2023-03-05T14:48:21.880Z,11.98
2023-03-05T14:50:56.333Z,11.45
2023-03-05T14:53:27.494Z,12.18
2023-03-05T14:55:59.410Z,12.07
2023-03-05T14:58:32.444Z,13.32
2023-03-05T15:01:00.462Z,11.43
2023-03-05T15:03:28.314Z,11.88
2023-03-05T15:05:58.844Z,11.88
2023-03-05T15:08:30.027Z,10.70
2023-03-05T15:10:58.763Z,11.30
2023-03-05T15:13:27.340Z,11.43
2023-03-05T15:15:55.507Z,10.15
2023-03-05T15:18:24.064Z,10.65
2023-03-05T15:20:53.357Z,10.13
2023-03-05T15:23:21.549Z,11.80
2023-03-05T15:25:50.178Z,10.90
2023-03-05T15:28:18.479Z,10.32
2023-03-05T15:30:47.367Z,10.60
2023-03-05T15:33:18.327Z,9.50
2023-03-05T15:35:46.296Z,10.60
2023-03-05T15:38:15.546Z,10.35
2023-03-05T15:40:44.297Z,10.93
2023-03-05T15:43:12.078Z,11.48
2023-03-05T15:45:40.009Z,11.30
2023-03-05T15:48:08.262Z,11.45
2023-03-05T15:50:36.207Z,12.23
2023-03-05T15:53:04.019Z,10.93
2023-03-05T15:55:31.610Z,10.88
2023-03-05T15:57:59.571Z,10.27
2023-03-05T16:00:30.893Z,10.07
2023-03-05T16:02:58.768Z,8.88
2023-03-05T16:05:26.944Z,8.65
2023-03-05T16:07:55.908Z,8.57
2023-03-05T16:10:26.881Z,8.65
2023-03-05T16:13:02.441Z,8.38
2023-03-05T16:15:33.066Z,8.13
2023-03-05T16:18:05.107Z,7.93
2023-03-05T16:20:36.472Z,7.63
2023-03-05T16:23:05.062Z,7.30
2023-03-05T16:25:32.988Z,6.80
2023-03-05T16:28:00.726Z,6.70
2023-03-05T16:30:28.782Z,5.85
2023-03-05T16:32:56.582Z,6.25
2023-03-05T16:35:24.525Z,5.55
2023-03-05T16:37:52.513Z,5.82
2023-03-05T16:40:20.340Z,5.75
2023-03-05T16:42:48.177Z,5.90
2023-03-05T16:45:15.775Z,5.72
2023-03-05T16:47:43.526Z,5.97
2023-03-05T16:50:12.274Z,6.47
2023-03-05T16:52:40.040Z,6.07
2023-03-05T16:55:08.361Z,6.32
2023-03-05T16:57:38.904Z,6.75
2023-03-05T17:00:09.261Z,7.78
2023-03-05T17:02:36.976Z,7.40
2023-03-05T17:05:05.148Z,6.20
2023-03-05T17:07:32.876Z,5.57
2023-03-05T17:10:00.669Z,5.88
2023-03-05T17:12:28.407Z,5.90
2023-03-05T17:14:56.200Z,5.00
2023-03-05T17:17:24.439Z,5.35
2023-03-05T17:19:52.445Z,5.63
2023-03-05T17:22:20.547Z,5.18
2023-03-05T17:24:48.670Z,5.22
2023-03-05T17:27:18.900Z,5.32
2023-03-05T17:29:46.677Z,4.78
2023-03-05T17:32:14.901Z,5.20
2023-03-05T17:34:43.550Z,5.03
2023-03-05T17:37:12.642Z,5.18
2023-03-05T17:39:40.406Z,5.45
2023-03-05T17:42:08.258Z,5.38
2023-03-05T17:44:36.041Z,4.90
2023-03-05T17:47:04.284Z,5.70
2023-03-05T17:49:31.999Z,5.40
2023-03-05T17:52:00.118Z,5.97
2023-03-05T17:54:28.265Z,6.13
2023-03-05T17:56:57.114Z,5.28
2023-03-05T17:59:25.723Z,5.80
2023-03-05T18:01:53.494Z,6.00
2023-03-05T18:04:21.718Z,5.32
2023-03-05T18:06:49.587Z,5.65
2023-03-05T18:09:17.739Z,6.38
2023-03-05T18:11:45.520Z,5.45
2023-03-05T18:14:15.796Z,5.82
2023-03-05T18:16:45.402Z,6.00
2023-03-05T18:19:13.253Z,5.70
2023-03-05T18:21:42.020Z,6.50
2023-03-05T18:24:10.109Z,6.05
2023-03-05T18:26:37.819Z,6.10
2023-03-05T18:29:05.700Z,7.97
2023-03-05T18:31:33.351Z,7.63
2023-03-05T18:34:01.430Z,7.38
2023-03-05T18:36:29.122Z,6.95
2023-03-05T18:38:56.956Z,7.40
2023-03-05T18:41:28.002Z,6.63
2023-03-05T18:43:56.083Z,6.93
2023-03-05T18:46:24.134Z,7.03
2023-03-05T18:48:51.784Z,6.97
2023-03-05T18:51:21.758Z,7.53
2023-03-05T18:53:51.892Z,6.43
2023-03-05T18:56:19.549Z,6.80
2023-03-05T18:58:47.965Z,7.15
2023-03-05T19:01:17.757Z,6.50
2023-03-05T19:03:47.150Z,6.85
2023-03-05T19:06:16.228Z,7.35
2023-03-05T19:08:44.917Z,7.30
2023-03-05T19:11:21.181Z,8.18
2023-03-05T19:13:51.235Z,6.82
2023-03-05T19:16:22.015Z,6.72
2023-03-05T19:19:13.437Z,6.85
2023-03-05T19:21:42.765Z,6.25
2023-03-05T19:24:11.657Z,6.38
2023-03-05T19:26:40.579Z,6.80
2023-03-05T19:29:09.216Z,6.32
2023-03-05T19:31:37.634Z,7.28
2023-03-05T19:34:06.056Z,7.65
2023-03-05T19:36:35.482Z,8.23
2023-03-05T19:39:05.861Z,6.82
2023-03-05T19:41:34.407Z,6.60
2023-03-05T19:44:04.048Z,6.82
2023-03-05T19:46:32.561Z,7.03
2023-03-05T19:49:00.824Z,6.63
2023-03-05T19:51:29.381Z,6.20
2023-03-05T19:53:57.261Z,6.13
2023-03-05T19:56:25.365Z,6.22
2023-03-05T19:58:53.114Z,6.47
2023-03-05T20:01:27.303Z,8.70
2023-03-05T20:03:57.405Z,9.55
2023-03-05T20:06:26.536Z,8.45
2023-03-05T20:08:55.332Z,7.20
2023-03-05T20:11:24.032Z,7.63
2023-03-05T20:13:53.820Z,7.38
2023-03-05T20:16:24.254Z,6.65
2023-03-05T20:18:54.969Z,6.60
2023-03-05T20:21:28.837Z,7.50
2023-03-05T20:23:59.818Z,7.05
2023-03-05T20:26:28.196Z,6.80
2023-03-05T20:28:57.597Z,6.30
2023-03-05T20:31:27.392Z,7.25
2023-03-05T20:33:56.455Z,6.72
2023-03-05T20:36:24.648Z,7.47
2023-03-05T20:38:52.356Z,7.40
2023-03-05T20:41:23.478Z,8.10
2023-03-05T20:43:52.247Z,7.20
2023-03-05T20:46:29.190Z,7.65
2023-03-05T20:48:59.381Z,8.13
2023-03-05T20:51:31.837Z,7.47
2023-03-05T20:54:04.215Z,6.93
2023-03-05T20:56:33.912Z,6.60
2023-03-05T20:59:05.174Z,6.25
2023-03-05T21:01:35.541Z,6.00
2023-03-05T21:04:04.254Z,6.82
2023-03-05T21:06:33.643Z,7.07
2023-03-05T21:09:01.770Z,6.75
2023-03-05T21:11:29.567Z,6.80
2023-03-05T21:13:57.443Z,7.00
2023-03-05T21:16:27.521Z,6.50
2023-03-05T21:18:57.376Z,5.70
2023-03-05T21:21:25.730Z,5.65
2023-03-05T21:23:55.671Z,6.43
2023-03-05T21:26:23.433Z,6.28
2023-03-05T21:28:51.253Z,6.55
2023-03-05T21:31:21.577Z,7.20
2023-03-05T21:33:51.292Z,7.38
2023-03-05T21:36:19.449Z,7.40
2023-03-05T21:38:48.707Z,7.60
2023-03-05T21:41:18.245Z,7.57
2023-03-05T21:43:46.657Z,7.95
2023-03-05T21:46:14.700Z,7.78
2023-03-05T21:48:42.565Z,7.22
2023-03-05T21:51:39.461Z,7.65
2023-03-05T21:54:28.974Z,8.18
2023-03-05T21:56:56.921Z,8.02
2023-03-05T21:59:24.882Z,8.32
2023-03-05T22:01:52.721Z,7.90
2023-03-05T22:04:20.402Z,8.10
2023-03-05T22:06:48.425Z,7.70
2023-03-05T22:09:16.451Z,7.45
2023-03-05T22:11:44.456Z,7.00
2023-03-05T22:14:12.145Z,7.32
2023-03-05T22:16:40.071Z,7.82
2023-03-05T22:19:07.904Z,8.40
2023-03-05T22:21:35.612Z,8.85
2023-03-05T22:24:04.423Z,11.43
2023-03-05T22:26:38.415Z,11.80
2023-03-05T22:29:08.753Z,12.15
2023-03-05T22:31:36.451Z,10.45
2023-03-05T22:34:04.629Z,10.80
2023-03-05T22:36:32.621Z,9.98
2023-03-05T22:39:00.506Z,9.38
2023-03-05T22:41:28.269Z,9.95
2023-03-05T22:43:56.111Z,8.82
2023-03-05T22:46:26.576Z,9.35
2023-03-05T22:48:54.448Z,8.35
2023-03-05T22:51:22.355Z,8.88
2023-03-05T22:53:50.061Z,9.05
2023-03-05T22:56:20.525Z,9.02
2023-03-05T22:58:49.124Z,8.32
2023-03-05T23:01:22.640Z,8.10
2023-03-05T23:04:49.606Z,7.68
2023-03-05T23:07:23.195Z,7.72
2023-03-05T23:10:07.223Z,8.07
2023-03-05T23:12:38.302Z,7.90
2023-03-05T23:15:10.318Z,8.60
2023-03-05T23:17:38.301Z,8.85
2023-03-05T23:20:09.716Z,8.07
2023-03-05T23:22:39.632Z,7.82
2023-03-05T23:25:07.991Z,8.20
2023-03-05T23:27:36.298Z,7.88
2023-03-05T23:30:16.427Z,7.65
2023-03-05T23:33:05.383Z,7.88
2023-03-05T23:35:36.463Z,7.85
2023-03-05T23:38:08.435Z,7.38
2023-03-05T23:40:40.220Z,8.02
2023-03-05T23:43:08.452Z,8.02
2023-03-05T23:45:36.832Z,8.45
2023-03-05T23:48:04.930Z,7.50
2023-03-05T23:50:35.276Z,7.47
2023-03-05T23:53:04.661Z,7.47
2023-03-05T23:55:40.045Z,8.27
2023-03-05T23:58:08.337Z,8.55
